Time;durP1;ratioP1;P1;durP2;ratioP2;P2;SDS_P1;SDS_P2;PMS_P1;PMS_P2;Temp;Humidity;BMP_temperature;BMP_pressure;BME280_temperature;BME280_humidity;BME280_pressure;Samples;Min_cycle;Max_cycle;Signal;HPM_P1;HPM_P2
2021/05/11 00:02:17;;;;;;;11.03;5.70;;;;;;;15.99;57.56;99747.66;2342770;76;32201;-60
2021/05/11 00:05:32;;;;;;;8.18;5.37;;;;;;;15.93;57.64;99750.88;2315356;76;32491;-60
2021/05/11 00:08:45;;;;;;;11.15;5.75;;;;;;;15.87;57.79;99737.86;2337553;76;32293;-59
2021/05/11 00:11:58;;;;;;;9.48;5.35;;;;;;;15.78;57.89;99738.95;2239850;77;32302;-60
2021/05/11 00:15:14;;;;;;;8.70;5.90;;;;;;;15.73;58.42;99738.93;2342039;76;32226;-61
2021/05/11 00:18:27;;;;;;;8.03;5.70;;;;;;;15.68;58.38;99730.36;2332644;76;32747;-61
2021/05/11 00:21:40;;;;;;;7.55;5.03;;;;;;;15.64;58.48;99732.42;2337826;76;32790;-61
2021/05/11 00:24:53;;;;;;;9.30;5.25;;;;;;;15.60;58.66;99719.67;2247885;77;32374;-60
2021/05/11 00:28:05;;;;;;;10.95;6.67;;;;;;;15.57;58.90;99725.81;2333436;76;32396;-61
2021/05/11 00:31:20;;;;;;;12.55;5.87;;;;;;;15.53;58.59;99717.59;2251505;77;32686;-60
2021/05/11 00:34:32;;;;;;;8.25;4.83;;;;;;;15.49;58.61;99718.33;2342376;76;32315;-60
2021/05/11 00:37:45;;;;;;;9.98;5.30;;;;;;;15.44;58.83;99718.70;2337532;76;32299;-60
2021/05/11 00:40:58;;;;;;;7.65;4.85;;;;;;;15.41;58.87;99720.77;2342273;75;32352;-61
2021/05/11 00:44:22;;;;;;;6.87;5.55;;;;;;;15.36;59.05;99710.84;2342318;76;32329;-60
2021/05/11 00:47:35;;;;;;;6.37;5.47;;;;;;;15.30;59.00;99713.05;2341065;76;33177;-59
2021/05/11 00:50:53;;;;;;;13.60;6.00;;;;;;;15.25;59.09;99724.68;2339652;76;32287;-60
2021/05/11 00:54:06;;;;;;;10.48;5.53;;;;;;;15.21;59.08;99715.13;2331728;76;32733;-59
2021/05/11 00:57:19;;;;;;;11.30;5.37;;;;;;;15.18;59.30;99714.86;2317220;75;32268;-60
2021/05/11 01:00:33;;;;;;;8.83;5.00;;;;;;;15.15;59.20;99711.05;2224920;79;32361;-60
2021/05/11 01:03:46;;;;;;;10.05;5.12;;;;;;;15.11;59.19;99710.07;2247975;77;32243;-59
2021/05/11 01:06:59;;;;;;;9.28;5.33;;;;;;;15.04;59.37;99709.22;2233633;79;32433;-60
2021/05/11 01:10:14;;;;;;;7.30;4.80;;;;;;;14.97;59.58;99705.77;2319936;75;32366;-60
2021/05/11 01:13:28;;;;;;;7.67;4.83;;;;;;;14.91;60.02;99703.03;2324600;76;32341;-60
2021/05/11 01:16:44;;;;;;;6.75;4.85;;;;;;;14.88;59.87;99705.48;2342392;76;32316;-60
2021/05/11 01:19:59;;;;;;;8.10;4.67;;;;;;;14.81;59.90;99700.69;2320203;76;32276;-60
2021/05/11 01:26:56;;;;;;;8.58;5.47;;;;;;;14.71;60.13;99697.38;2313516;76;32297;-60
2021/05/11 01:44:56;;;;;;;9.47;5.00;;;;;;;14.89;60.20;99696.92;2321748;76;31062;-60
2021/05/11 01:47:52;;;;;;;8.48;4.65;;;;;;;15.05;59.83;99696.58;2228631;77;32295;-60
2021/05/11 01:57:54;;;;;;;6.47;3.80;;;;;;;14.93;59.93;99682.70;2235890;77;32612;-59
2021/05/11 02:22:37;;;;;;;12.33;4.50;;;;;;;14.59;60.06;99660.52;2274220;77;35566;-60
2021/05/11 02:28:44;;;;;;;7.03;4.30;;;;;;;14.65;59.88;99651.09;2266996;77;35321;-61
2021/05/11 02:31:57;;;;;;;8.13;4.42;;;;;;;14.74;59.75;99648.57;2320224;76;32406;-59
2021/05/11 02:35:14;;;;;;;7.60;5.08;;;;;;;14.75;59.66;99648.10;2342300;76;32374;-61
2021/05/11 02:38:28;;;;;;;7.37;4.45;;;;;;;14.76;59.65;99648.95;2311852;76;32267;-60
2021/05/11 02:41:43;;;;;;;5.97;3.92;;;;;;;14.71;59.61;99642.57;2333176;76;32727;-61
2021/05/11 02:44:57;;;;;;;8.03;3.85;;;;;;;14.65;59.73;99641.66;2341925;76;32576;-60
2021/05/11 02:48:10;;;;;;;12.53;4.47;;;;;;;14.61;59.76;99637.50;2311131;76;32281;-61
2021/05/11 02:51:27;;;;;;;6.87;4.12;;;;;;;14.56;59.92;99645.95;2338075;76;32222;-60
2021/05/11 02:54:41;;;;;;;7.10;4.05;;;;;;;14.50;59.99;99643.72;2331155;76;32198;-59
2021/05/11 02:57:55;;;;;;;7.05;4.92;;;;;;;14.46;59.93;99630.09;2226514;79;32220;-60
2021/05/11 03:01:09;;;;;;;10.72;4.83;;;;;;;14.43;59.97;99632.55;2242330;77;32609;-59
2021/05/11 03:04:22;;;;;;;5.97;4.10;;;;;;;14.43;60.01;99631.20;2222195;79;32329;-60
2021/05/11 03:07:35;;;;;;;7.03;4.17;;;;;;;14.39;59.96;99627.89;2327804;76;32395;-60
2021/05/11 03:10:48;;;;;;;7.92;4.00;;;;;;;14.37;60.09;99632.53;2281283;76;32332;-60
2021/05/11 03:14:03;;;;;;;7.55;6.62;;;;;;;14.34;60.16;99625.16;2251353;77;32281;-64
2021/05/11 03:17:16;;;;;;;12.33;4.70;;;;;;;14.32;60.13;99627.10;2343156;76;32675;-59
2021/05/11 03:20:28;;;;;;;8.25;4.42;;;;;;;14.29;60.20;99626.86;2324156;76;32298;-60
2021/05/11 03:23:42;;;;;;;9.50;4.62;;;;;;;14.25;60.21;99628.06;2299862;76;32282;-60
2021/05/11 03:26:56;;;;;;;9.00;4.72;;;;;;;14.23;60.28;99624.65;2328719;76;32311;-60
2021/05/11 03:30:10;;;;;;;9.05;5.10;;;;;;;14.22;60.39;99622.92;2326570;76;32258;-59
2021/05/11 03:33:23;;;;;;;8.50;5.25;;;;;;;14.21;60.35;99620.70;2333393;76;32241;-63
2021/05/11 03:36:37;;;;;;;9.00;5.33;;;;;;;14.20;60.34;99618.98;2343201;76;32616;-62
2021/05/11 03:39:50;;;;;;;13.68;5.37;;;;;;;14.20;60.36;99616.80;2241409;77;32281;-59
2021/05/11 03:43:16;;;;;;;8.15;5.33;;;;;;;14.21;60.38;99611.28;2321491;76;32364;-62
2021/05/11 03:46:29;;;;;;;11.08;5.08;;;;;;;14.23;60.37;99617.41;2307219;76;32165;-61
2021/05/11 03:49:42;;;;;;;10.35;5.55;;;;;;;14.25;60.20;99611.89;2247694;78;32706;-62
2021/05/11 03:52:56;;;;;;;11.40;5.40;;;;;;;14.28;60.11;99612.55;2335381;76;32298;-60
2021/05/11 03:56:09;;;;;;;14.33;5.60;;;;;;;14.35;60.09;99610.23;2324942;76;32320;-62
2021/05/11 03:59:22;;;;;;;10.68;5.40;;;;;;;14.41;60.01;99605.70;2240468;77;32988;-60
2021/05/11 04:02:35;;;;;;;12.80;5.75;;;;;;;14.47;59.90;99596.31;2343087;76;32227;-60
2021/05/11 04:05:49;;;;;;;9.78;5.40;;;;;;;14.53;59.75;99590.42;2263158;77;32235;-60
2021/05/11 04:09:13;;;;;;;9.58;5.33;;;;;;;14.61;59.60;99588.98;2336228;75;32276;-60
2021/05/11 04:19:10;;;;;;;12.73;6.33;;;;;;;14.87;59.17;99589.16;2273350;76;32300;-70
2021/05/11 04:22:23;;;;;;;12.40;6.55;;;;;;;15.08;58.98;99592.95;2266697;77;32321;-68
2021/05/11 04:25:36;;;;;;;9.10;5.83;;;;;;;15.19;58.76;99590.27;2339669;76;32314;-70
2021/05/11 04:28:50;;;;;;;12.18;6.12;;;;;;;15.26;58.80;99579.33;2342943;76;32810;-69
2021/05/11 04:32:03;;;;;;;10.43;5.05;;;;;;;15.35;58.60;99576.38;2214472;79;32716;-68
2021/05/11 04:35:17;;;;;;;12.18;5.40;;;;;;;15.46;58.53;99578.20;2341622;76;32641;-72
2021/05/11 04:38:30;;;;;;;9.78;5.40;;;;;;;15.60;58.32;99571.17;2318370;76;32338;-68
2021/05/11 04:41:45;;;;;;;9.20;5.28;;;;;;;15.80;58.23;99569.51;2221317;77;32646;-70
2021/05/11 04:45:00;;;;;;;13.05;5.30;;;;;;;16.14;58.10;99570.39;2339869;76;32718;-70
2021/05/11 04:48:14;;;;;;;12.33;5.10;;;;;;;16.98;57.69;99567.66;2234547;77;32275;-67
2021/05/11 04:51:26;;;;;;;15.53;4.83;;;;;;;18.06;56.92;99562.50;2336769;76;32324;-69
2021/05/11 04:54:40;;;;;;;10.18;5.22;;;;;;;19.21;55.28;99555.73;2335322;76;32747;-66
2021/05/11 04:57:54;;;;;;;10.43;5.45;;;;;;;20.33;54.77;99555.55;2341163;76;28103;-71
2021/05/11 05:01:08;;;;;;;12.20;4.90;;;;;;;21.40;52.89;99564.33;2330856;76;27720;-69
2021/05/11 05:04:21;;;;;;;10.60;4.12;;;;;;;22.21;49.34;99556.17;2317860;75;27737;-69
2021/05/11 05:07:37;;;;;;;6.42;4.12;;;;;;;22.88;49.06;99550.47;2331990;76;27551;-71
2021/05/11 05:10:51;;;;;;;8.80;4.65;;;;;;;23.51;46.15;99547.00;2246783;77;27707;-70
2021/05/11 05:14:05;;;;;;;10.98;4.40;;;;;;;24.07;47.16;99552.30;2243180;79;28048;-73
2021/05/11 05:17:18;;;;;;;13.08;4.83;;;;;;;24.79;45.43;99550.14;2238045;78;27720;-72
2021/05/11 05:20:32;;;;;;;7.25;3.65;;;;;;;25.43;44.15;99544.59;2320538;76;28087;-73
2021/05/11 05:23:49;;;;;;;9.05;3.72;;;;;;;26.06;43.11;99536.31;2342388;76;27746;-74
2021/05/11 05:30:47;;;;;;;7.10;3.35;;;;;;;26.78;40.93;99530.78;2251879;77;27689;-74
2021/05/11 05:34:01;;;;;;;10.60;3.45;;;;;;;27.06;38.04;99529.39;2337761;75;28009;-74
2021/05/11 05:37:13;;;;;;;12.13;4.30;;;;;;;27.18;38.92;99522.80;2341178;76;27739;-73
2021/05/11 05:40:30;;;;;;;6.87;4.15;;;;;;;27.40;37.40;99524.03;2225602;79;27680;-71
2021/05/11 05:43:44;;;;;;;11.20;4.17;;;;;;;27.63;36.26;99521.50;2248298;77;27689;-72
2021/05/11 05:46:57;;;;;;;5.47;3.80;;;;;;;27.72;35.23;99516.11;2296496;75;27644;-67
2021/05/11 05:50:11;;;;;;;7.42;3.98;;;;;;;27.99;36.00;99521.14;2246022;78;28226;-68
2021/05/11 05:53:32;;;;;;;13.78;4.45;;;;;;;28.29;34.16;99519.41;2342539;75;27775;-67
2021/05/11 05:56:42;;;;;;;11.53;4.65;;;;;;;28.62;34.63;99512.16;2254548;76;28069;-67
2021/05/11 05:59:55;;;;;;;5.85;3.67;;;;;;;29.02;33.83;99502.98;2231026;78;27803;-66
2021/05/11 06:03:20;;;;;;;11.10;4.50;;;;;;;29.05;32.79;99499.25;2248470;78;28178;-66
2021/05/11 06:06:24;;;;;;;6.30;3.62;;;;;;;29.05;31.03;99499.25;2336215;75;27892;-68
2021/05/11 06:09:37;;;;;;;6.42;3.90;;;;;;;29.11;32.26;99503.91;2313466;76;27955;-67
2021/05/11 06:12:58;;;;;;;10.28;3.90;;;;;;;29.43;30.91;99499.03;2284254;76;27979;-67
2021/05/11 06:23:06;;;;;;;6.22;4.00;;;;;;;30.24;29.84;99485.53;2287521;76;27756;-67
2021/05/11 06:26:19;;;;;;;11.12;3.70;;;;;;;30.25;29.12;99484.47;2272528;77;27739;-65
2021/05/11 06:29:34;;;;;;;11.43;4.03;;;;;;;30.34;29.91;99482.81;2248139;78;27787;-66
2021/05/11 06:32:48;;;;;;;6.70;4.37;;;;;;;30.27;29.28;99484.25;2245816;77;28104;-66
2021/05/11 06:36:01;;;;;;;7.12;3.87;;;;;;;30.29;29.41;99477.42;2248537;78;27670;-67
2021/05/11 06:39:15;;;;;;;12.10;3.80;;;;;;;30.56;30.16;99477.73;2343091;76;27609;-69
2021/05/11 06:42:30;;;;;;;6.95;3.22;;;;;;;31.09;29.01;99479.59;2222789;78;27770;-64
2021/05/11 06:56:26;;;;;;;9.23;3.75;;;;;;;32.10;27.72;99472.95;2285542;76;27706;-71
2021/05/11 06:59:40;;;;;;;4.95;3.08;;;;;;;32.17;27.08;99473.40;2342008;76;28084;-71
2021/05/11 07:02:53;;;;;;;6.58;3.40;;;;;;;32.36;27.26;99471.38;2285130;76;27725;-71
2021/05/11 07:06:07;;;;;;;7.50;3.47;;;;;;;32.41;26.28;99468.19;2304750;76;27800;-71
2021/05/11 07:16:06;;;;;;;11.45;2.90;;;;;;;32.69;26.13;99459.66;2196862;79;27632;-67
2021/05/11 07:19:19;;;;;;;10.30;2.90;;;;;;;32.73;26.28;99455.88;2341839;76;28123;-69
2021/05/11 07:22:36;;;;;;;8.70;3.47;;;;;;;32.95;26.46;99456.09;2343066;76;27688;-71
2021/05/11 07:32:29;;;;;;;5.08;3.17;;;;;;;33.30;24.59;99444.03;2288387;77;27907;-69
2021/05/11 07:35:43;;;;;;;5.47;2.92;;;;;;;32.96;24.43;99452.23;2256828;77;27781;-70
2021/05/11 07:38:56;;;;;;;5.42;3.00;;;;;;;32.60;24.96;99445.88;2231492;78;27724;-68
2021/05/11 07:42:09;;;;;;;11.93;3.27;;;;;;;32.75;25.49;99442.61;2226025;77;27752;-72
2021/05/11 07:49:10;;;;;;;8.55;2.50;;;;;;;32.68;25.13;99439.94;2314339;74;27837;-70
2021/05/11 08:03:12;;;;;;;6.95;2.80;;;;;;;33.31;24.94;99425.43;2254291;76;28546;-70
2021/05/11 08:06:26;;;;;;;3.80;2.60;;;;;;;33.59;24.65;99437.09;2242034;77;28015;-68
2021/05/11 08:16:19;;;;;;;12.25;2.47;;;;;;;33.17;24.47;99429.89;2267916;76;27803;-65
2021/05/11 08:19:53;;;;;;;4.28;2.40;;;;;;;33.12;25.24;99424.80;2321585;76;27718;-71
2021/05/11 08:30:13;;;;;;;4.93;2.70;;;;;;;33.57;25.22;99424.56;2247822;77;28021;-72
2021/05/11 08:33:31;;;;;;;6.78;2.25;;;;;;;33.84;24.83;99421.95;2308792;75;27995;-73
2021/05/11 08:36:46;;;;;;;3.58;2.58;;;;;;;33.83;24.66;99424.47;2205165;78;27798;-66
2021/05/11 08:39:59;;;;;;;4.87;2.12;;;;;;;33.91;24.42;99424.63;2305813;75;27909;-68
2021/05/11 08:43:37;;;;;;;7.42;3.08;;;;;;;33.62;24.16;99431.58;2316503;75;27795;-60
2021/05/11 08:46:52;;;;;;;3.15;1.87;;;;;;;33.27;23.13;99429.78;2310273;76;27683;-65
2021/05/11 08:50:09;;;;;;;7.40;2.62;;;;;;;32.87;23.62;99431.49;2228940;77;27875;-60
2021/05/11 09:25:16;;;;;;;6.30;2.00;;;;;;;31.07;25.29;99418.42;2321004;75;28214;-61
2021/05/11 09:28:38;;;;;;;5.42;2.15;;;;;;;30.84;25.72;99426.06;2319035;76;27782;-62
2021/05/11 09:32:00;;;;;;;8.05;2.42;;;;;;;30.62;26.40;99417.36;2229934;77;27601;-61
2021/05/11 10:42:18;;;;;;;5.10;1.72;;;;;;;29.50;29.46;99349.42;2320975;76;27858;-64
2021/05/11 10:48:54;;;;;;;12.23;8.03;;;;;;;29.53;27.83;99353.67;2278819;77;27775;-69
2021/05/11 10:52:21;;;;;;;9.78;2.00;;;;;;;29.39;28.04;99350.16;2321649;74;27927;-64
2021/05/11 10:55:39;;;;;;;5.97;1.42;;;;;;;29.36;29.41;99345.94;2318384;76;27729;-65
2021/05/11 11:02:38;;;;;;;4.85;1.65;;;;;;;29.36;26.65;99352.84;2250520;75;27794;-63
2021/05/11 11:05:56;;;;;;;8.13;1.40;;;;;;;29.35;26.81;99351.66;2315031;75;27830;-72
2021/05/11 11:09:10;;;;;;;3.95;1.30;;;;;;;29.31;25.67;99355.38;2244299;77;28281;-64
2021/05/11 11:12:23;;;;;;;9.65;2.00;;;;;;;29.24;25.87;99347.66;2342665;76;27695;-63
2021/05/11 11:15:35;;;;;;;4.33;1.02;;;;;;;29.28;26.07;99354.44;2248000;78;27833;-64
2021/05/11 11:18:48;;;;;;;4.03;1.20;;;;;;;29.27;25.34;99344.47;2342317;76;27770;-63
2021/05/11 11:26:00;;;;;;;6.78;1.52;;;;;;;29.15;24.12;99340.73;2297051;77;28217;-61
2021/05/11 11:29:13;;;;;;;3.20;1.17;;;;;;;29.13;24.67;99340.11;2341950;76;27829;-62
2021/05/11 11:32:26;;;;;;;2.52;1.45;;;;;;;29.11;24.34;99336.21;2340547;76;27770;-63
2021/05/11 11:35:42;;;;;;;2.20;1.37;;;;;;;29.10;24.14;99331.76;2248509;78;27682;-65
2021/05/11 11:38:56;;;;;;;17.48;1.90;;;;;;;29.11;24.68;99330.14;2396024;74;27596;-63
2021/05/11 11:42:21;;;;;;;5.85;1.67;;;;;;;29.13;24.73;99326.32;2343213;76;27887;-59
2021/05/11 11:45:39;;;;;;;7.80;4.47;;;;;;;29.11;24.35;99325.17;2343211;76;28207;-62
2021/05/11 11:49:03;;;;;;;6.67;1.70;;;;;;;29.08;24.82;99319.55;2278843;77;27746;-59
2021/05/11 11:52:24;;;;;;;13.40;6.45;;;;;;;29.03;24.09;99307.50;2296579;77;28252;-63
2021/05/11 11:55:59;;;;;;;10.32;1.80;;;;;;;29.00;24.25;99323.11;2293731;77;27762;-63
2021/05/11 11:59:06;;;;;;;14.38;4.08;;;;;;;29.00;24.65;99301.05;2343160;76;27648;-65
2021/05/11 12:02:24;;;;;;;2.65;1.62;;;;;;;29.00;24.20;99295.02;2211445;79;27682;-64
2021/05/11 12:05:51;;;;;;;37.88;27.87;;;;;;;28.98;23.80;99293.52;2312897;76;27649;-63
2021/05/11 12:09:05;;;;;;;23.07;11.73;;;;;;;28.98;23.57;99288.01;2239505;78;27744;-60
2021/05/11 12:12:19;;;;;;;6.97;5.60;;;;;;;28.95;23.63;99282.42;2286352;77;27704;-63
2021/05/11 12:15:33;;;;;;;7.37;2.00;;;;;;;28.92;23.80;99285.09;2343115;76;27710;-62
2021/05/11 12:19:06;;;;;;;2.92;1.82;;;;;;;28.89;23.74;99282.78;2225703;79;27701;-61
2021/05/11 12:22:20;;;;;;;7.08;1.67;;;;;;;28.89;24.12;99281.91;2251336;77;27998;-63
2021/05/11 12:25:34;;;;;;;14.43;6.40;;;;;;;28.90;23.40;99273.95;2343117;76;27709;-64
2021/05/11 12:28:48;;;;;;;3.27;1.30;;;;;;;28.91;23.49;99277.89;2248593;78;27704;-62
2021/05/11 12:32:02;;;;;;;6.65;1.32;;;;;;;28.90;23.06;99262.41;2251578;77;27627;-62
2021/05/11 12:35:16;;;;;;;6.47;2.37;;;;;;;28.87;23.30;99262.02;2273308;77;27643;-65
2021/05/11 12:38:32;;;;;;;5.78;1.70;;;;;;;28.87;22.99;99265.61;2248648;78;27715;-61
2021/05/11 12:41:45;;;;;;;4.97;2.50;;;;;;;28.87;23.67;99269.74;2252380;77;27713;-62
2021/05/11 12:45:06;;;;;;;4.22;3.15;;;;;;;28.89;23.80;99264.86;2248732;78;28220;-62
2021/05/11 12:48:20;;;;;;;5.92;2.02;;;;;;;28.94;24.06;99266.42;2263357;76;28678;-64
2021/05/11 12:51:43;;;;;;;11.15;2.15;;;;;;;29.05;23.14;99269.52;2248274;78;27774;-64
2021/05/11 12:54:56;;;;;;;17.67;2.02;;;;;;;29.09;22.93;99261.12;2277227;77;27861;-65
2021/05/11 13:25:47;;;;;;;8.55;1.85;;;;;;;29.07;22.60;99229.61;2297420;77;27642;-63
2021/05/11 13:29:05;;;;;;;12.88;1.80;;;;;;;29.05;22.66;99228.16;2343186;76;27730;-59
2021/05/11 13:35:44;;;;;;;3.27;1.40;;;;;;;28.99;23.16;99220.25;2342391;76;27858;-62
2021/05/11 13:38:58;;;;;;;8.23;1.95;;;;;;;28.95;23.32;99222.63;2321467;76;27669;-59
2021/05/11 13:42:12;;;;;;;8.18;1.60;;;;;;;28.91;23.78;99224.13;2252422;77;27676;-63
2021/05/11 13:45:27;;;;;;;6.55;1.92;;;;;;;28.89;24.17;99224.88;2251254;77;28112;-63
2021/05/11 13:48:44;;;;;;;6.30;1.62;;;;;;;28.88;24.13;99222.33;2236799;77;27657;-62
2021/05/11 13:51:57;;;;;;;8.13;1.60;;;;;;;28.89;24.41;99217.98;2244888;77;27692;-62
2021/05/11 13:55:20;;;;;;;6.17;1.70;;;;;;;28.89;24.78;99221.27;2248639;78;27706;-66
2021/05/11 14:02:27;;;;;;;5.10;1.50;;;;;;;28.89;24.30;99214.37;2342722;76;27689;-66
2021/05/11 14:05:28;;;;;;;7.20;1.57;;;;;;;28.90;24.36;99216.92;2314994;75;28155;-63
2021/05/11 14:08:42;;;;;;;4.83;1.95;;;;;;;28.88;24.28;99212.16;2333084;76;27644;-58
2021/05/11 14:11:56;;;;;;;4.55;1.67;;;;;;;28.90;24.53;99219.67;2252023;77;27730;-61
2021/05/11 14:15:11;;;;;;;12.82;2.58;;;;;;;28.88;24.78;99207.16;2297413;77;27747;-61
2021/05/11 14:18:25;;;;;;;4.85;2.08;;;;;;;28.85;24.93;99209.84;2341421;76;27894;-62
2021/05/11 14:24:58;;;;;;;5.12;2.00;;;;;;;28.79;25.20;99201.11;2078192;85;27783;-61
2021/05/11 14:28:21;;;;;;;6.92;1.57;;;;;;;28.83;25.12;99195.44;2252109;77;27750;-59
2021/05/11 14:31:52;;;;;;;4.72;1.27;;;;;;;28.79;24.92;99190.91;2284523;77;27691;-61
2021/05/11 14:35:33;;;;;;;6.37;1.60;;;;;;;28.80;24.47;99193.13;2297360;77;27630;-59
2021/05/11 14:39:10;;;;;;;8.85;1.80;;;;;;;28.77;24.25;99194.42;2297332;77;28257;-59
2021/05/11 14:42:35;;;;;;;8.05;2.35;;;;;;;28.74;24.33;99189.34;2308937;75;27703;-63
2021/05/11 14:46:06;;;;;;;9.83;4.10;;;;;;;28.72;24.71;99190.62;2281263;77;27701;-59
2021/05/11 14:49:53;;;;;;;7.90;3.30;;;;;;;28.72;24.87;99194.75;2342128;76;27681;-62
2021/05/11 14:53:38;;;;;;;8.20;2.70;;;;;;;28.71;24.19;99188.38;2372974;74;27756;-59
2021/05/11 14:57:04;;;;;;;20.15;3.55;;;;;;;28.71;24.85;99194.44;2297245;77;27603;-61
2021/05/11 15:00:18;;;;;;;7.10;2.02;;;;;;;28.69;24.83;99189.16;2248402;78;27717;-59
2021/05/11 15:03:32;;;;;;;3.27;1.92;;;;;;;28.69;24.96;99188.30;2249605;77;27751;-59
2021/05/11 15:06:45;;;;;;;5.15;1.90;;;;;;;28.68;24.85;99187.47;2342541;76;27647;-59
2021/05/11 15:09:59;;;;;;;4.33;1.62;;;;;;;28.64;25.03;99182.09;2248766;78;27571;-61
2021/05/11 15:13:14;;;;;;;4.17;1.50;;;;;;;28.58;24.92;99192.61;2319184;75;28105;-59
2021/05/11 15:16:31;;;;;;;2.92;1.50;;;;;;;28.54;24.87;99181.20;2240847;77;28308;-58
2021/05/11 15:19:44;;;;;;;9.45;1.82;;;;;;;28.50;24.73;99190.45;2292170;77;27704;-63
2021/05/11 15:22:58;;;;;;;11.18;2.00;;;;;;;28.47;25.16;99185.89;2334924;76;27782;-59
2021/05/11 15:26:13;;;;;;;10.98;1.75;;;;;;;28.45;25.20;99182.54;2332828;75;27640;-58
2021/05/11 15:29:27;;;;;;;5.42;1.70;;;;;;;28.41;25.76;99182.66;2226957;77;27700;-61
2021/05/11 15:32:44;;;;;;;3.33;1.62;;;;;;;28.41;25.56;99179.91;2235153;77;27783;-61
2021/05/11 15:36:05;;;;;;;5.42;1.90;;;;;;;28.39;25.87;99182.86;2321101;76;27757;-58
2021/05/11 15:39:19;;;;;;;5.72;2.12;;;;;;;28.37;26.20;99180.89;2310755;76;28529;-61
2021/05/11 15:42:31;;;;;;;7.03;1.70;;;;;;;28.35;26.49;99183.02;2323159;76;27797;-58
2021/05/11 15:45:47;;;;;;;4.67;1.60;;;;;;;28.30;26.70;99180.06;2315596;76;27736;-61
2021/05/11 15:49:00;;;;;;;5.80;2.05;;;;;;;28.26;27.11;99170.03;2220469;77;27709;-58
2021/05/11 15:52:14;;;;;;;6.00;2.15;;;;;;;28.26;27.30;99174.16;2222660;77;27742;-60
2021/05/11 15:55:32;;;;;;;4.15;2.00;;;;;;;28.22;27.56;99170.16;2227317;77;27729;-62
2021/05/11 15:58:45;;;;;;;4.17;1.45;;;;;;;28.18;27.92;99175.78;2286116;77;27717;-58
2021/05/11 16:01:59;;;;;;;2.83;1.75;;;;;;;28.12;27.90;99183.56;2327367;76;28063;-61
2021/05/11 16:05:16;;;;;;;5.90;1.65;;;;;;;28.04;27.96;99177.74;2324772;74;27777;-58
2021/05/11 16:08:29;;;;;;;7.53;1.90;;;;;;;27.96;28.06;99178.83;2270701;77;27668;-60
2021/05/11 16:11:42;;;;;;;4.75;1.67;;;;;;;27.89;28.41;99172.49;2330305;74;27742;-58
2021/05/11 16:14:55;;;;;;;6.22;1.80;;;;;;;27.83;28.42;99172.84;2228244;77;27686;-59
2021/05/11 16:18:08;;;;;;;3.17;1.87;;;;;;;27.80;28.09;99184.82;2322596;75;28258;-58
2021/05/11 16:21:22;;;;;;;5.17;1.65;;;;;;;27.74;28.53;99181.86;2264484;77;27659;-60
2021/05/11 16:24:35;;;;;;;7.03;1.77;;;;;;;27.65;28.77;99180.39;2243802;76;27857;-60
2021/05/11 16:27:49;;;;;;;4.17;1.67;;;;;;;27.54;28.97;99179.69;2272296;77;27829;-58
2021/05/11 16:31:03;;;;;;;3.27;1.57;;;;;;;27.43;29.11;99181.16;2327102;74;27690;-58
2021/05/11 16:34:16;;;;;;;9.18;1.90;;;;;;;27.31;29.37;99182.33;2316118;75;27693;-58
2021/05/11 16:37:29;;;;;;;3.77;2.00;;;;;;;27.19;29.67;99184.05;2320859;74;27764;-60
2021/05/11 16:40:43;;;;;;;4.45;1.87;;;;;;;27.05;29.94;99186.80;2233105;77;28413;-58
2021/05/11 16:44:17;;;;;;;4.35;2.10;;;;;;;26.91;30.21;99186.48;2274943;77;27701;-59
2021/05/11 16:47:30;;;;;;;3.90;1.77;;;;;;;26.77;30.54;99189.71;2325439;74;27714;-65
2021/05/11 16:50:44;;;;;;;6.40;1.77;;;;;;;26.64;30.69;99186.44;2320697;74;27660;-66
2021/05/11 16:53:56;;;;;;;6.22;1.90;;;;;;;26.52;30.89;99180.71;2221868;77;27745;-66
2021/05/11 16:57:09;;;;;;;6.70;2.00;;;;;;;26.43;31.14;99183.31;2215493;78;27796;-67
2021/05/11 17:00:24;;;;;;;5.72;1.70;;;;;;;26.32;31.13;99189.74;2223249;77;27757;-69
2021/05/11 17:03:37;;;;;;;7.12;2.00;;;;;;;26.22;31.37;99187.38;2216195;78;28217;-69
2021/05/11 17:06:50;;;;;;;4.25;2.02;;;;;;;26.14;31.51;99187.58;2223908;77;28159;-68
2021/05/11 17:10:06;;;;;;;6.67;4.78;;;;;;;26.06;31.92;99186.34;2245047;78;27859;-70
2021/05/11 17:13:19;;;;;;;3.05;2.10;;;;;;;25.95;32.36;99182.28;2322315;76;27796;-68
2021/05/11 17:16:32;;;;;;;4.87;2.10;;;;;;;25.85;32.49;99182.66;2317228;76;27923;-70
2021/05/11 17:19:45;;;;;;;2.25;2.05;;;;;;;25.76;32.66;99177.87;2205901;79;27846;-68
2021/05/11 17:23:00;;;;;;;3.47;2.00;;;;;;;25.68;32.81;99186.28;2308427;74;27694;-72
2021/05/11 17:26:13;;;;;;;10.23;2.15;;;;;;;25.60;33.02;99173.58;2227806;77;27612;-68
2021/05/11 17:29:27;;;;;;;6.28;2.35;;;;;;;25.52;33.19;99180.58;2233446;77;27644;-72
2021/05/11 17:32:41;;;;;;;8.43;2.33;;;;;;;25.44;33.45;99173.36;2311483;76;27694;-71
2021/05/11 17:35:56;;;;;;;8.45;2.50;;;;;;;25.37;33.50;99169.72;2322950;76;28409;-70
2021/05/11 17:39:09;;;;;;;4.70;2.15;;;;;;;25.29;33.51;99175.34;2314752;74;27711;-70
2021/05/11 17:43:04;;;;;;;5.87;1.80;;;;;;;25.20;33.89;99169.70;1837276;91;27831;-70
2021/05/11 17:46:06;;;;;;;6.95;2.40;;;;;;;25.12;33.89;99169.33;1813627;93;27656;-70
2021/05/11 17:49:07;;;;;;;8.38;2.35;;;;;;;25.07;34.23;99178.13;1817621;93;28800;-71
2021/05/11 17:52:09;;;;;;;5.20;2.83;;;;;;;25.01;34.11;99177.03;1821851;93;32049;-72
2021/05/11 17:55:12;;;;;;;3.30;2.00;;;;;;;24.94;34.20;99182.12;1815641;93;33023;-71
2021/05/11 17:58:13;;;;;;;3.05;2.12;;;;;;;24.84;34.36;99185.20;1814698;93;28520;-73
2021/05/11 18:01:15;;;;;;;5.00;2.70;;;;;;;24.80;34.50;99193.52;1822919;93;27661;-74
2021/05/11 18:04:17;;;;;;;3.55;2.20;;;;;;;24.73;34.62;99197.02;1814466;93;29212;-72
2021/05/11 18:07:19;;;;;;;3.17;2.70;;;;;;;24.65;34.67;99193.03;1819251;93;31062;-71
2021/05/11 18:10:22;;;;;;;4.72;1.90;;;;;;;24.57;34.68;99200.82;1817184;93;33538;-71
2021/05/11 18:13:24;;;;;;;2.20;2.00;;;;;;;24.48;34.89;99195.16;1819969;93;28968;-72
2021/05/11 18:16:26;;;;;;;3.55;2.12;;;;;;;24.40;34.77;99197.50;1793317;95;27437;-73
2021/05/11 18:19:28;;;;;;;4.67;2.17;;;;;;;24.33;34.84;99206.14;1784503;95;28842;-72
2021/05/11 18:22:30;;;;;;;3.17;2.20;;;;;;;24.26;34.96;99203.88;1793770;95;31498;-71
2021/05/11 18:25:33;;;;;;;13.93;3.87;;;;;;;24.17;35.11;99205.00;1726513;98;32534;-71
2021/05/11 18:28:35;;;;;;;13.30;7.85;;;;;;;24.07;35.33;99209.44;1778300;95;29528;-72
2021/05/11 18:31:37;;;;;;;10.68;2.90;;;;;;;23.97;35.56;99216.58;1767185;96;27543;-71
2021/05/11 18:34:39;;;;;;;4.85;2.50;;;;;;;23.83;35.66;99214.14;1792443;95;28701;-72
2021/05/11 18:37:54;;;;;;;5.45;2.50;;;;;;;23.72;35.91;99218.72;1775860;95;31171;-71
2021/05/11 18:40:52;;;;;;;5.00;2.20;;;;;;;23.62;35.82;99214.90;1764477;96;33230;-72
2021/05/11 18:43:54;;;;;;;4.70;2.40;;;;;;;23.53;36.10;99220.98;1759100;97;28782;-72
2021/05/11 18:46:56;;;;;;;3.42;2.33;;;;;;;23.47;36.05;99227.18;1750576;97;27484;-71
2021/05/11 18:49:58;;;;;;;8.30;3.80;;;;;;;23.40;36.15;99231.18;1742151;97;28696;-72
2021/05/11 18:53:02;;;;;;;7.67;5.58;;;;;;;23.32;36.12;99234.02;1749069;97;31891;-72
2021/05/11 18:56:05;;;;;;;11.15;5.37;;;;;;;23.24;36.39;99231.34;1766963;96;33646;-72
2021/05/11 18:59:08;;;;;;;7.47;2.58;;;;;;;23.15;36.40;99227.30;1744174;98;28733;-71
2021/05/11 19:02:10;;;;;;;7.92;2.47;;;;;;;23.06;36.50;99239.31;1770045;96;27503;-71
2021/05/11 19:05:13;;;;;;;3.55;2.80;;;;;;;22.97;36.67;99241.27;1757753;97;28799;-72
2021/05/11 19:08:15;;;;;;;5.28;2.62;;;;;;;22.87;36.80;99234.69;1758972;97;31154;-72
2021/05/11 19:11:18;;;;;;;2.77;2.35;;;;;;;22.81;36.87;99237.30;1758443;97;33053;-71
2021/05/11 19:14:22;;;;;;;4.92;2.80;;;;;;;22.72;37.04;99234.64;1759179;97;28750;-72
2021/05/11 19:17:24;;;;;;;5.25;2.55;;;;;;;22.67;37.05;99234.86;1766645;96;27544;-71
2021/05/11 19:20:26;;;;;;;2.72;2.30;;;;;;;22.64;37.10;99242.88;1766556;96;29428;-68
2021/05/11 19:23:40;;;;;;;6.97;2.80;;;;;;;22.60;37.05;99238.30;1759192;96;31066;-66
2021/05/11 19:26:40;;;;;;;4.28;2.50;;;;;;;22.54;37.20;99245.84;1760645;96;33381;-66
2021/05/11 19:29:44;;;;;;;4.70;2.40;;;;;;;22.49;37.36;99240.09;1760163;96;29842;-61
2021/05/11 19:32:45;;;;;;;7.65;3.10;;;;;;;22.42;37.44;99247.28;1762386;96;27475;-67
2021/05/11 19:35:48;;;;;;;5.55;2.65;;;;;;;22.38;37.67;99247.27;1741191;98;28755;-63
2021/05/11 19:38:51;;;;;;;4.58;2.87;;;;;;;22.34;37.74;99252.77;1734967;97;31795;-61